X  Stänga Metar väderdata för luftfart     LEGR F.G.L. Airport Granada-Jaén Airport
Temperatur
86°F Temperatur
54°F Daggpunkt
33% Fuktighet



Vind
2 MPH
3 KM/T
1 M/S
2 KTS



Lugn
N
Nuvarande omständigheter

Klar Klar
Tryck 1014.9 (hPa) - 29.97 (inHg)
Synlighet 6 (mil) - 9.7 (km)
Flygplats
Flygplatskod LEGR

Plats: F.G.L. Airport Granada-Jaén Airport
Distans: 138 (mi)

Metar:
LEGR 211000Z VRB02KT CAVOK 30/12 Q1015

Tid: 21-07-2024 12:00 CEST